sensor_id;sensor_type;location;lat;lon;timestamp;P1;durP1;ratioP1;P2;durP2;ratioP2
39612;SDS011;25303;48.896;13.342;2022-10-18T00:00:46;4.63;;;2.78;;
39612;SDS011;25303;48.896;13.342;2022-10-18T00:03:29;3.85;;;2.88;;
39612;SDS011;25303;48.896;13.342;2022-10-18T00:06:13;3.92;;;2.70;;
39612;SDS011;25303;48.896;13.342;2022-10-18T00:08:56;4.45;;;2.40;;
39612;SDS011;25303;48.896;13.342;2022-10-18T00:11:39;4.57;;;2.42;;
39612;SDS011;25303;48.896;13.342;2022-10-18T00:14:23;3.85;;;2.13;;
39612;SDS011;25303;48.896;13.342;2022-10-18T00:17:06;4.43;;;2.50;;
39612;SDS011;25303;48.896;13.342;2022-10-18T00:19:49;4.97;;;2.63;;
39612;SDS011;25303;48.896;13.342;2022-10-18T00:22:32;5.05;;;2.70;;
39612;SDS011;25303;48.896;13.342;2022-10-18T00:25:16;4.13;;;2.60;;
39612;SDS011;25303;48.896;13.342;2022-10-18T00:27:59;4.45;;;2.75;;
39612;SDS011;25303;48.896;13.342;2022-10-18T00:30:43;4.00;;;2.33;;
39612;SDS011;25303;48.896;13.342;2022-10-18T00:33:26;6.18;;;2.42;;
39612;SDS011;25303;48.896;13.342;2022-10-18T00:36:09;5.03;;;2.78;;
39612;SDS011;25303;48.896;13.342;2022-10-18T00:38:53;5.20;;;2.97;;
39612;SDS011;25303;48.896;13.342;2022-10-18T00:41:36;4.53;;;3.22;;
39612;SDS011;25303;48.896;13.342;2022-10-18T00:47:41;5.63;;;3.22;;
39612;SDS011;25303;48.896;13.342;2022-10-18T00:50:28;4.82;;;2.92;;
39612;SDS011;25303;48.896;13.342;2022-10-18T00:53:15;5.57;;;3.45;;
39612;SDS011;25303;48.896;13.342;2022-10-18T00:56:00;5.38;;;3.08;;
39612;SDS011;25303;48.896;13.342;2022-10-18T00:58:43;4.88;;;2.88;;
39612;SDS011;25303;48.896;13.342;2022-10-18T01:01:26;5.77;;;3.33;;
39612;SDS011;25303;48.896;13.342;2022-10-18T01:04:11;5.97;;;3.70;;
39612;SDS011;25303;48.896;13.342;2022-10-18T01:06:56;5.75;;;3.65;;
39612;SDS011;25303;48.896;13.342;2022-10-18T01:09:44;10.48;;;3.78;;
39612;SDS011;25303;48.896;13.342;2022-10-18T01:12:38;6.68;;;4.15;;
39612;SDS011;25303;48.896;13.342;2022-10-18T01:15:30;8.15;;;3.97;;
39612;SDS011;25303;48.896;13.342;2022-10-18T01:18:19;7.07;;;3.50;;
39612;SDS011;25303;48.896;13.342;2022-10-18T01:21:11;7.25;;;3.78;;
39612;SDS011;25303;48.896;13.342;2022-10-18T01:24:07;4.05;;;3.08;;
39612;SDS011;25303;48.896;13.342;2022-10-18T01:27:26;5.05;;;2.97;;
39612;SDS011;25303;48.896;13.342;2022-10-18T01:33:30;7.47;;;3.88;;
39612;SDS011;25303;48.896;13.342;2022-10-18T01:36:20;8.13;;;3.97;;
39612;SDS011;25303;48.896;13.342;2022-10-18T01:39:05;5.68;;;3.78;;
39612;SDS011;25303;48.896;13.342;2022-10-18T01:41:51;5.70;;;3.92;;
39612;SDS011;25303;48.896;13.342;2022-10-18T01:44:36;7.05;;;3.92;;
39612;SDS011;25303;48.896;13.342;2022-10-18T01:47:23;4.70;;;2.88;;
39612;SDS011;25303;48.896;13.342;2022-10-18T01:50:09;6.20;;;3.33;;
39612;SDS011;25303;48.896;13.342;2022-10-18T01:52:51;5.63;;;3.22;;
39612;SDS011;25303;48.896;13.342;2022-10-18T01:55:36;4.82;;;3.30;;
39612;SDS011;25303;48.896;13.342;2022-10-18T01:58:28;5.15;;;3.63;;
39612;SDS011;25303;48.896;13.342;2022-10-18T02:01:18;5.47;;;3.80;;
39612;SDS011;25303;48.896;13.342;2022-10-18T02:04:09;6.72;;;3.90;;
39612;SDS011;25303;48.896;13.342;2022-10-18T02:07:02;5.28;;;3.30;;
39612;SDS011;25303;48.896;13.342;2022-10-18T02:09:51;8.95;;;3.47;;
39612;SDS011;25303;48.896;13.342;2022-10-18T02:12:43;7.13;;;4.18;;
39612;SDS011;25303;48.896;13.342;2022-10-18T02:15:29;6.85;;;3.90;;
39612;SDS011;25303;48.896;13.342;2022-10-18T02:18:16;6.82;;;3.75;;
39612;SDS011;25303;48.896;13.342;2022-10-18T02:21:03;6.13;;;3.83;;
39612;SDS011;25303;48.896;13.342;2022-10-18T02:23:49;5.57;;;3.65;;
39612;SDS011;25303;48.896;13.342;2022-10-18T02:26:33;6.43;;;3.85;;
39612;SDS011;25303;48.896;13.342;2022-10-18T02:29:17;5.50;;;3.50;;
39612;SDS011;25303;48.896;13.342;2022-10-18T02:32:02;5.15;;;3.20;;
39612;SDS011;25303;48.896;13.342;2022-10-18T02:34:48;3.92;;;3.05;;
39612;SDS011;25303;48.896;13.342;2022-10-18T02:37:39;4.93;;;3.00;;
39612;SDS011;25303;48.896;13.342;2022-10-18T02:40:24;4.68;;;3.08;;
39612;SDS011;25303;48.896;13.342;2022-10-18T02:43:07;4.90;;;3.10;;
39612;SDS011;25303;48.896;13.342;2022-10-18T02:45:50;6.32;;;3.55;;
39612;SDS011;25303;48.896;13.342;2022-10-18T02:48:33;5.28;;;3.08;;
39612;SDS011;25303;48.896;13.342;2022-10-18T02:51:16;6.20;;;3.25;;
39612;SDS011;25303;48.896;13.342;2022-10-18T02:54:00;5.35;;;3.42;;
39612;SDS011;25303;48.896;13.342;2022-10-18T02:56:43;7.72;;;3.22;;
39612;SDS011;25303;48.896;13.342;2022-10-18T02:59:26;5.97;;;3.88;;
39612;SDS011;25303;48.896;13.342;2022-10-18T03:02:09;6.97;;;3.83;;
39612;SDS011;25303;48.896;13.342;2022-10-18T03:04:52;7.03;;;3.85;;
39612;SDS011;25303;48.896;13.342;2022-10-18T03:07:35;7.22;;;3.42;;
39612;SDS011;25303;48.896;13.342;2022-10-18T03:10:19;5.50;;;3.40;;
39612;SDS011;25303;48.896;13.342;2022-10-18T03:13:02;5.70;;;3.60;;
39612;SDS011;25303;48.896;13.342;2022-10-18T03:15:45;7.40;;;3.55;;
39612;SDS011;25303;48.896;13.342;2022-10-18T03:18:28;5.72;;;3.42;;
39612;SDS011;25303;48.896;13.342;2022-10-18T03:21:11;5.43;;;3.28;;
39612;SDS011;25303;48.896;13.342;2022-10-18T03:23:54;5.22;;;3.35;;
39612;SDS011;25303;48.896;13.342;2022-10-18T03:26:40;4.88;;;3.22;;
39612;SDS011;25303;48.896;13.342;2022-10-18T03:29:23;3.80;;;2.80;;
39612;SDS011;25303;48.896;13.342;2022-10-18T03:32:05;6.22;;;3.20;;
39612;SDS011;25303;48.896;13.342;2022-10-18T03:34:48;4.53;;;2.67;;
39612;SDS011;25303;48.896;13.342;2022-10-18T03:37:31;4.07;;;2.22;;
39612;SDS011;25303;48.896;13.342;2022-10-18T03:40:14;3.45;;;2.40;;
39612;SDS011;25303;48.896;13.342;2022-10-18T03:42:59;3.83;;;2.45;;
39612;SDS011;25303;48.896;13.342;2022-10-18T03:45:41;9.60;;;2.83;;
39612;SDS011;25303;48.896;13.342;2022-10-18T03:48:24;3.90;;;2.20;;
39612;SDS011;25303;48.896;13.342;2022-10-18T03:51:07;3.78;;;2.30;;
39612;SDS011;25303;48.896;13.342;2022-10-18T03:53:50;4.15;;;2.45;;
39612;SDS011;25303;48.896;13.342;2022-10-18T03:56:33;9.38;;;4.45;;
39612;SDS011;25303;48.896;13.342;2022-10-18T03:59:17;6.20;;;3.70;;
39612;SDS011;25303;48.896;13.342;2022-10-18T04:02:00;5.03;;;2.83;;
39612;SDS011;25303;48.896;13.342;2022-10-18T04:04:43;5.13;;;2.83;;
39612;SDS011;25303;48.896;13.342;2022-10-18T04:07:26;5.88;;;2.95;;
39612;SDS011;25303;48.896;13.342;2022-10-18T04:10:09;6.55;;;3.17;;
39612;SDS011;25303;48.896;13.342;2022-10-18T04:12:52;4.30;;;2.75;;
39612;SDS011;25303;48.896;13.342;2022-10-18T04:15:36;4.13;;;2.65;;
39612;SDS011;25303;48.896;13.342;2022-10-18T04:18:19;3.70;;;2.35;;
39612;SDS011;25303;48.896;13.342;2022-10-18T04:21:02;4.80;;;2.65;;
39612;SDS011;25303;48.896;13.342;2022-10-18T04:23:45;5.25;;;2.75;;
39612;SDS011;25303;48.896;13.342;2022-10-18T04:26:28;4.05;;;2.75;;
39612;SDS011;25303;48.896;13.342;2022-10-18T04:29:11;6.38;;;2.40;;
39612;SDS011;25303;48.896;13.342;2022-10-18T04:31:55;5.03;;;2.50;;
39612;SDS011;25303;48.896;13.342;2022-10-18T04:34:38;3.80;;;2.30;;
39612;SDS011;25303;48.896;13.342;2022-10-18T04:37:26;4.32;;;1.90;;
39612;SDS011;25303;48.896;13.342;2022-10-18T04:40:09;2.97;;;1.70;;
39612;SDS011;25303;48.896;13.342;2022-10-18T04:42:53;3.10;;;1.83;;
39612;SDS011;25303;48.896;13.342;2022-10-18T04:45:37;3.45;;;1.95;;
39612;SDS011;25303;48.896;13.342;2022-10-18T04:48:21;3.17;;;2.08;;
39612;SDS011;25303;48.896;13.342;2022-10-18T04:51:04;3.00;;;1.98;;
39612;SDS011;25303;48.896;13.342;2022-10-18T04:53:47;3.10;;;1.70;;
39612;SDS011;25303;48.896;13.342;2022-10-18T04:56:30;3.33;;;2.10;;
39612;SDS011;25303;48.896;13.342;2022-10-18T04:59:13;3.83;;;2.33;;
39612;SDS011;25303;48.896;13.342;2022-10-18T05:01:55;3.38;;;2.30;;
39612;SDS011;25303;48.896;13.342;2022-10-18T05:04:40;4.03;;;2.58;;
39612;SDS011;25303;48.896;13.342;2022-10-18T05:07:23;6.78;;;2.38;;
39612;SDS011;25303;48.896;13.342;2022-10-18T05:10:06;5.07;;;2.88;;
39612;SDS011;25303;48.896;13.342;2022-10-18T05:12:49;3.67;;;2.67;;
39612;SDS011;25303;48.896;13.342;2022-10-18T05:15:32;2.90;;;1.98;;
39612;SDS011;25303;48.896;13.342;2022-10-18T05:18:15;3.28;;;2.17;;
39612;SDS011;25303;48.896;13.342;2022-10-18T05:20:59;3.42;;;2.65;;
39612;SDS011;25303;48.896;13.342;2022-10-18T05:23:42;6.45;;;2.85;;
39612;SDS011;25303;48.896;13.342;2022-10-18T05:26:25;5.97;;;3.75;;
39612;SDS011;25303;48.896;13.342;2022-10-18T05:29:08;5.63;;;3.42;;
39612;SDS011;25303;48.896;13.342;2022-10-18T05:31:51;6.30;;;3.90;;
39612;SDS011;25303;48.896;13.342;2022-10-18T05:34:34;5.40;;;3.42;;
39612;SDS011;25303;48.896;13.342;2022-10-18T05:37:18;5.50;;;3.70;;
39612;SDS011;25303;48.896;13.342;2022-10-18T05:40:08;6.68;;;3.58;;
39612;SDS011;25303;48.896;13.342;2022-10-18T05:42:52;7.17;;;3.70;;
39612;SDS011;25303;48.896;13.342;2022-10-18T05:45:35;5.65;;;3.22;;
39612;SDS011;25303;48.896;13.342;2022-10-18T05:48:18;6.80;;;3.40;;
39612;SDS011;25303;48.896;13.342;2022-10-18T05:51:00;3.05;;;2.22;;
39612;SDS011;25303;48.896;13.342;2022-10-18T05:53:45;3.20;;;2.20;;
39612;SDS011;25303;48.896;13.342;2022-10-18T05:56:28;3.10;;;1.80;;
39612;SDS011;25303;48.896;13.342;2022-10-18T05:59:11;2.30;;;1.75;;
39612;SDS011;25303;48.896;13.342;2022-10-18T06:01:54;3.20;;;1.52;;
39612;SDS011;25303;48.896;13.342;2022-10-18T06:04:36;2.72;;;1.65;;
39612;SDS011;25303;48.896;13.342;2022-10-18T06:07:19;5.25;;;1.65;;
39612;SDS011;25303;48.896;13.342;2022-10-18T06:10:04;3.90;;;2.17;;
39612;SDS011;25303;48.896;13.342;2022-10-18T06:12:47;3.03;;;1.98;;
39612;SDS011;25303;48.896;13.342;2022-10-18T06:15:30;5.70;;;2.10;;
39612;SDS011;25303;48.896;13.342;2022-10-18T06:18:13;3.25;;;2.05;;
39612;SDS011;25303;48.896;13.342;2022-10-18T06:20:56;3.58;;;1.95;;
39612;SDS011;25303;48.896;13.342;2022-10-18T06:23:40;4.97;;;1.97;;
39612;SDS011;25303;48.896;13.342;2022-10-18T06:26:25;3.60;;;1.88;;
39612;SDS011;25303;48.896;13.342;2022-10-18T06:29:08;4.15;;;2.65;;
39612;SDS011;25303;48.896;13.342;2022-10-18T06:31:51;3.65;;;2.15;;
39612;SDS011;25303;48.896;13.342;2022-10-18T06:34:34;2.83;;;1.90;;
39612;SDS011;25303;48.896;13.342;2022-10-18T06:37:17;4.10;;;1.85;;
39612;SDS011;25303;48.896;13.342;2022-10-18T06:40:00;3.22;;;1.70;;
39612;SDS011;25303;48.896;13.342;2022-10-18T06:42:44;3.00;;;1.63;;
39612;SDS011;25303;48.896;13.342;2022-10-18T06:45:46;2.17;;;1.45;;
39612;SDS011;25303;48.896;13.342;2022-10-18T06:48:29;3.15;;;1.40;;
39612;SDS011;25303;48.896;13.342;2022-10-18T06:51:12;2.35;;;1.30;;
39612;SDS011;25303;48.896;13.342;2022-10-18T06:53:56;2.20;;;1.40;;
39612;SDS011;25303;48.896;13.342;2022-10-18T06:56:57;2.03;;;1.38;;
39612;SDS011;25303;48.896;13.342;2022-10-18T06:59:44;3.38;;;1.35;;
39612;SDS011;25303;48.896;13.342;2022-10-18T07:02:27;2.75;;;1.73;;
39612;SDS011;25303;48.896;13.342;2022-10-18T07:05:10;2.25;;;1.38;;
39612;SDS011;25303;48.896;13.342;2022-10-18T07:07:53;2.63;;;1.75;;
39612;SDS011;25303;48.896;13.342;2022-10-18T07:10:36;2.30;;;1.55;;
39612;SDS011;25303;48.896;13.342;2022-10-18T07:13:19;3.22;;;1.98;;
39612;SDS011;25303;48.896;13.342;2022-10-18T07:16:20;3.38;;;2.20;;
39612;SDS011;25303;48.896;13.342;2022-10-18T07:19:02;3.80;;;2.30;;
39612;SDS011;25303;48.896;13.342;2022-10-18T07:21:45;4.15;;;2.55;;
39612;SDS011;25303;48.896;13.342;2022-10-18T07:24:28;4.35;;;2.78;;
39612;SDS011;25303;48.896;13.342;2022-10-18T07:27:11;7.30;;;3.35;;
39612;SDS011;25303;48.896;13.342;2022-10-18T07:29:54;6.50;;;3.25;;
39612;SDS011;25303;48.896;13.342;2022-10-18T07:32:38;5.22;;;2.97;;
39612;SDS011;25303;48.896;13.342;2022-10-18T07:35:21;6.45;;;3.10;;
39612;SDS011;25303;48.896;13.342;2022-10-18T07:38:04;4.53;;;3.17;;
39612;SDS011;25303;48.896;13.342;2022-10-18T07:40:47;5.07;;;3.13;;
39612;SDS011;25303;48.896;13.342;2022-10-18T07:43:29;5.10;;;3.08;;
39612;SDS011;25303;48.896;13.342;2022-10-18T07:46:13;6.30;;;3.53;;
39612;SDS011;25303;48.896;13.342;2022-10-18T07:48:58;7.50;;;3.73;;
39612;SDS011;25303;48.896;13.342;2022-10-18T07:51:41;8.13;;;5.60;;
39612;SDS011;25303;48.896;13.342;2022-10-18T07:54:23;9.77;;;5.85;;
39612;SDS011;25303;48.896;13.342;2022-10-18T07:57:06;9.23;;;5.35;;
39612;SDS011;25303;48.896;13.342;2022-10-18T07:59:49;9.98;;;5.50;;
39612;SDS011;25303;48.896;13.342;2022-10-18T08:02:37;7.75;;;5.15;;
39612;SDS011;25303;48.896;13.342;2022-10-18T08:05:21;7.72;;;5.00;;
39612;SDS011;25303;48.896;13.342;2022-10-18T08:08:04;7.25;;;4.80;;
39612;SDS011;25303;48.896;13.342;2022-10-18T08:10:48;8.80;;;5.73;;
39612;SDS011;25303;48.896;13.342;2022-10-18T08:13:32;8.52;;;5.22;;
39612;SDS011;25303;48.896;13.342;2022-10-18T08:16:15;7.40;;;4.43;;
39612;SDS011;25303;48.896;13.342;2022-10-18T08:19:04;9.30;;;5.15;;
39612;SDS011;25303;48.896;13.342;2022-10-18T08:21:51;9.18;;;5.57;;
39612;SDS011;25303;48.896;13.342;2022-10-18T08:24:34;11.20;;;6.95;;
39612;SDS011;25303;48.896;13.342;2022-10-18T08:27:17;10.55;;;6.30;;
39612;SDS011;25303;48.896;13.342;2022-10-18T08:30:00;12.90;;;7.95;;
39612;SDS011;25303;48.896;13.342;2022-10-18T08:32:43;10.73;;;6.85;;
39612;SDS011;25303;48.896;13.342;2022-10-18T08:35:26;13.77;;;6.95;;
39612;SDS011;25303;48.896;13.342;2022-10-18T08:38:10;14.27;;;7.90;;
39612;SDS011;25303;48.896;13.342;2022-10-18T08:40:59;13.63;;;7.35;;
39612;SDS011;25303;48.896;13.342;2022-10-18T08:43:57;13.20;;;8.27;;
39612;SDS011;25303;48.896;13.342;2022-10-18T08:46:48;14.25;;;8.32;;
39612;SDS011;25303;48.896;13.342;2022-10-18T08:49:35;15.48;;;8.45;;
39612;SDS011;25303;48.896;13.342;2022-10-18T08:52:30;13.48;;;8.88;;
39612;SDS011;25303;48.896;13.342;2022-10-18T08:55:19;14.43;;;8.57;;
39612;SDS011;25303;48.896;13.342;2022-10-18T08:58:12;15.52;;;9.48;;
39612;SDS011;25303;48.896;13.342;2022-10-18T09:01:01;13.93;;;8.55;;
39612;SDS011;25303;48.896;13.342;2022-10-18T09:04:12;15.68;;;8.90;;
39612;SDS011;25303;48.896;13.342;2022-10-18T09:07:08;12.10;;;7.78;;
39612;SDS011;25303;48.896;13.342;2022-10-18T09:10:05;13.63;;;7.07;;
39612;SDS011;25303;48.896;13.342;2022-10-18T09:13:06;15.20;;;8.75;;
39612;SDS011;25303;48.896;13.342;2022-10-18T09:16:03;12.85;;;8.63;;
39612;SDS011;25303;48.896;13.342;2022-10-18T09:18:50;12.15;;;7.72;;
39612;SDS011;25303;48.896;13.342;2022-10-18T09:21:42;13.20;;;8.70;;
39612;SDS011;25303;48.896;13.342;2022-10-18T09:24:35;17.80;;;9.70;;
39612;SDS011;25303;48.896;13.342;2022-10-18T09:27:21;15.13;;;9.02;;
39612;SDS011;25303;48.896;13.342;2022-10-18T09:30:22;15.68;;;8.98;;
39612;SDS011;25303;48.896;13.342;2022-10-18T09:33:19;16.42;;;9.38;;
39612;SDS011;25303;48.896;13.342;2022-10-18T09:36:10;13.57;;;8.13;;
39612;SDS011;25303;48.896;13.342;2022-10-18T09:39:00;13.73;;;8.88;;
39612;SDS011;25303;48.896;13.342;2022-10-18T09:41:46;13.25;;;7.72;;
39612;SDS011;25303;48.896;13.342;2022-10-18T09:44:34;13.60;;;8.68;;
39612;SDS011;25303;48.896;13.342;2022-10-18T09:47:23;11.95;;;8.07;;
39612;SDS011;25303;48.896;13.342;2022-10-18T09:50:14;13.85;;;8.18;;
39612;SDS011;25303;48.896;13.342;2022-10-18T09:53:05;14.77;;;9.27;;
39612;SDS011;25303;48.896;13.342;2022-10-18T09:55:56;13.52;;;8.02;;
39612;SDS011;25303;48.896;13.342;2022-10-18T09:58:43;14.23;;;8.95;;
39612;SDS011;25303;48.896;13.342;2022-10-18T10:04:12;10.10;;;6.82;;
39612;SDS011;25303;48.896;13.342;2022-10-18T10:06:56;12.00;;;7.88;;
39612;SDS011;25303;48.896;13.342;2022-10-18T10:09:43;14.10;;;8.38;;
39612;SDS011;25303;48.896;13.342;2022-10-18T10:12:28;14.95;;;9.02;;
39612;SDS011;25303;48.896;13.342;2022-10-18T10:15:16;13.25;;;8.50;;
39612;SDS011;25303;48.896;13.342;2022-10-18T10:18:04;14.20;;;8.00;;
39612;SDS011;25303;48.896;13.342;2022-10-18T10:21:00;14.10;;;8.95;;
39612;SDS011;25303;48.896;13.342;2022-10-18T10:23:50;13.52;;;8.20;;
39612;SDS011;25303;48.896;13.342;2022-10-18T10:26:35;12.70;;;8.50;;
39612;SDS011;25303;48.896;13.342;2022-10-18T10:32:30;14.27;;;8.80;;
39612;SDS011;25303;48.896;13.342;2022-10-18T10:35:30;15.40;;;8.60;;
39612;SDS011;25303;48.896;13.342;2022-10-18T10:38:35;12.05;;;7.32;;
39612;SDS011;25303;48.896;13.342;2022-10-18T10:41:19;12.10;;;7.72;;
39612;SDS011;25303;48.896;13.342;2022-10-18T10:44:04;13.77;;;7.38;;
39612;SDS011;25303;48.896;13.342;2022-10-18T10:46:56;15.20;;;8.27;;
39612;SDS011;25303;48.896;13.342;2022-10-18T10:49:41;12.00;;;7.47;;
39612;SDS011;25303;48.896;13.342;2022-10-18T10:52:25;10.15;;;6.70;;
39612;SDS011;25303;48.896;13.342;2022-10-18T10:55:16;13.45;;;8.48;;
39612;SDS011;25303;48.896;13.342;2022-10-18T10:58:15;13.02;;;8.32;;
39612;SDS011;25303;48.896;13.342;2022-10-18T11:01:02;13.48;;;8.23;;
39612;SDS011;25303;48.896;13.342;2022-10-18T11:04:00;10.27;;;7.25;;
39612;SDS011;25303;48.896;13.342;2022-10-18T11:06:46;12.75;;;6.75;;
39612;SDS011;25303;48.896;13.342;2022-10-18T11:09:40;13.75;;;8.43;;
39612;SDS011;25303;48.896;13.342;2022-10-18T11:12:32;11.25;;;7.18;;
39612;SDS011;25303;48.896;13.342;2022-10-18T11:15:19;9.52;;;6.38;;
39612;SDS011;25303;48.896;13.342;2022-10-18T11:18:07;11.13;;;6.57;;
39612;SDS011;25303;48.896;13.342;2022-10-18T11:20:59;13.35;;;7.72;;
39612;SDS011;25303;48.896;13.342;2022-10-18T11:23:48;11.57;;;6.88;;
39612;SDS011;25303;48.896;13.342;2022-10-18T11:26:34;11.55;;;7.28;;
39612;SDS011;25303;48.896;13.342;2022-10-18T11:32:23;9.00;;;6.10;;
39612;SDS011;25303;48.896;13.342;2022-10-18T11:35:24;13.18;;;7.38;;
39612;SDS011;25303;48.896;13.342;2022-10-18T11:38:20;10.77;;;6.88;;
39612;SDS011;25303;48.896;13.342;2022-10-18T11:41:18;12.18;;;6.75;;
39612;SDS011;25303;48.896;13.342;2022-10-18T11:44:17;9.15;;;6.30;;
39612;SDS011;25303;48.896;13.342;2022-10-18T11:47:10;11.15;;;6.47;;
39612;SDS011;25303;48.896;13.342;2022-10-18T11:50:05;9.90;;;6.65;;
39612;SDS011;25303;48.896;13.342;2022-10-18T11:52:55;10.20;;;7.20;;
39612;SDS011;25303;48.896;13.342;2022-10-18T11:55:53;12.93;;;7.10;;
39612;SDS011;25303;48.896;13.342;2022-10-18T11:58:46;9.52;;;6.10;;
39612;SDS011;25303;48.896;13.342;2022-10-18T12:01:38;9.75;;;6.53;;
39612;SDS011;25303;48.896;13.342;2022-10-18T12:04:29;10.23;;;5.90;;
39612;SDS011;25303;48.896;13.342;2022-10-18T12:07:22;10.50;;;5.63;;
39612;SDS011;25303;48.896;13.342;2022-10-18T12:10:12;8.52;;;5.63;;
39612;SDS011;25303;48.896;13.342;2022-10-18T12:13:19;8.75;;;5.20;;
39612;SDS011;25303;48.896;13.342;2022-10-18T12:16:07;8.38;;;5.93;;
39612;SDS011;25303;48.896;13.342;2022-10-18T12:18:52;9.55;;;5.78;;
39612;SDS011;25303;48.896;13.342;2022-10-18T12:21:38;8.38;;;5.38;;
39612;SDS011;25303;48.896;13.342;2022-10-18T12:24:23;10.90;;;6.22;;
39612;SDS011;25303;48.896;13.342;2022-10-18T12:27:10;8.05;;;5.88;;
39612;SDS011;25303;48.896;13.342;2022-10-18T12:29:56;9.80;;;5.57;;
39612;SDS011;25303;48.896;13.342;2022-10-18T12:32:43;8.80;;;5.95;;
39612;SDS011;25303;48.896;13.342;2022-10-18T12:35:50;8.02;;;5.88;;
39612;SDS011;25303;48.896;13.342;2022-10-18T12:38:48;8.15;;;5.80;;
39612;SDS011;25303;48.896;13.342;2022-10-18T12:41:36;8.30;;;5.20;;
39612;SDS011;25303;48.896;13.342;2022-10-18T12:44:19;10.23;;;5.53;;
39612;SDS011;25303;48.896;13.342;2022-10-18T12:47:05;8.52;;;5.30;;
39612;SDS011;25303;48.896;13.342;2022-10-18T12:49:54;11.27;;;5.95;;
39612;SDS011;25303;48.896;13.342;2022-10-18T12:52:39;11.82;;;6.93;;
39612;SDS011;25303;48.896;13.342;2022-10-18T12:55:28;9.88;;;5.57;;
39612;SDS011;25303;48.896;13.342;2022-10-18T12:58:22;9.48;;;6.07;;
39612;SDS011;25303;48.896;13.342;2022-10-18T13:01:07;10.07;;;6.30;;
39612;SDS011;25303;48.896;13.342;2022-10-18T13:03:52;10.25;;;6.05;;
39612;SDS011;25303;48.896;13.342;2022-10-18T13:13:35;10.18;;;5.95;;
39612;SDS011;25303;48.896;13.342;2022-10-18T13:16:32;13.23;;;6.32;;
39612;SDS011;25303;48.896;13.342;2022-10-18T13:19:25;10.32;;;6.47;;
39612;SDS011;25303;48.896;13.342;2022-10-18T13:22:18;12.60;;;6.30;;
39612;SDS011;25303;48.896;13.342;2022-10-18T13:25:13;10.13;;;5.82;;
39612;SDS011;25303;48.896;13.342;2022-10-18T13:28:04;11.55;;;6.60;;
39612;SDS011;25303;48.896;13.342;2022-10-18T13:31:08;11.63;;;5.50;;
39612;SDS011;25303;48.896;13.342;2022-10-18T13:34:15;9.15;;;5.15;;
39612;SDS011;25303;48.896;13.342;2022-10-18T13:37:05;11.13;;;5.85;;
39612;SDS011;25303;48.896;13.342;2022-10-18T13:40:14;9.93;;;6.13;;
39612;SDS011;25303;48.896;13.342;2022-10-18T13:46:22;10.90;;;5.72;;
39612;SDS011;25303;48.896;13.342;2022-10-18T13:49:16;9.65;;;4.85;;
39612;SDS011;25303;48.896;13.342;2022-10-18T13:52:14;9.35;;;5.57;;
39612;SDS011;25303;48.896;13.342;2022-10-18T13:55:13;9.20;;;5.55;;
39612;SDS011;25303;48.896;13.342;2022-10-18T13:58:16;9.18;;;5.45;;
39612;SDS011;25303;48.896;13.342;2022-10-18T14:01:11;12.50;;;6.63;;
39612;SDS011;25303;48.896;13.342;2022-10-18T14:04:29;9.57;;;5.78;;
39612;SDS011;25303;48.896;13.342;2022-10-18T14:07:21;11.73;;;5.93;;
39612;SDS011;25303;48.896;13.342;2022-10-18T14:10:08;12.73;;;6.80;;
39612;SDS011;25303;48.896;13.342;2022-10-18T14:12:58;7.90;;;5.13;;
39612;SDS011;25303;48.896;13.342;2022-10-18T14:15:44;11.15;;;6.38;;
39612;SDS011;25303;48.896;13.342;2022-10-18T14:18:31;9.95;;;5.78;;
39612;SDS011;25303;48.896;13.342;2022-10-18T14:21:20;9.88;;;5.28;;
39612;SDS011;25303;48.896;13.342;2022-10-18T14:24:14;8.23;;;5.07;;
39612;SDS011;25303;48.896;13.342;2022-10-18T14:27:17;11.43;;;5.47;;
39612;SDS011;25303;48.896;13.342;2022-10-18T14:30:08;9.45;;;6.10;;
39612;SDS011;25303;48.896;13.342;2022-10-18T14:32:55;8.27;;;4.95;;
39612;SDS011;25303;48.896;13.342;2022-10-18T14:38:23;9.02;;;4.80;;
39612;SDS011;25303;48.896;13.342;2022-10-18T14:41:12;9.18;;;4.97;;
39612;SDS011;25303;48.896;13.342;2022-10-18T14:44:08;9.95;;;5.28;;
39612;SDS011;25303;48.896;13.342;2022-10-18T14:46:59;6.63;;;4.28;;
39612;SDS011;25303;48.896;13.342;2022-10-18T14:49:44;9.63;;;4.95;;
39612;SDS011;25303;48.896;13.342;2022-10-18T14:52:29;9.90;;;5.30;;
39612;SDS011;25303;48.896;13.342;2022-10-18T14:55:18;9.95;;;6.22;;
39612;SDS011;25303;48.896;13.342;2022-10-18T14:58:07;12.55;;;6.15;;
39612;SDS011;25303;48.896;13.342;2022-10-18T15:00:55;9.63;;;5.55;;
39612;SDS011;25303;48.896;13.342;2022-10-18T15:03:39;12.23;;;6.68;;
39612;SDS011;25303;48.896;13.342;2022-10-18T15:06:22;12.77;;;7.18;;
39612;SDS011;25303;48.896;13.342;2022-10-18T15:09:05;9.70;;;5.70;;
39612;SDS011;25303;48.896;13.342;2022-10-18T15:11:49;11.00;;;6.90;;
39612;SDS011;25303;48.896;13.342;2022-10-18T15:14:35;9.48;;;6.22;;
39612;SDS011;25303;48.896;13.342;2022-10-18T15:17:20;9.40;;;5.60;;
39612;SDS011;25303;48.896;13.342;2022-10-18T15:20:17;10.32;;;5.95;;
39612;SDS011;25303;48.896;13.342;2022-10-18T15:23:17;8.38;;;5.97;;
39612;SDS011;25303;48.896;13.342;2022-10-18T15:26:04;10.15;;;6.97;;
39612;SDS011;25303;48.896;13.342;2022-10-18T15:28:50;12.18;;;6.28;;
39612;SDS011;25303;48.896;13.342;2022-10-18T15:31:37;10.77;;;6.80;;
39612;SDS011;25303;48.896;13.342;2022-10-18T15:34:23;8.77;;;5.60;;
39612;SDS011;25303;48.896;13.342;2022-10-18T15:43:33;7.20;;;3.85;;
39612;SDS011;25303;48.896;13.342;2022-10-18T15:46:29;10.07;;;4.47;;
39612;SDS011;25303;48.896;13.342;2022-10-18T15:52:32;8.02;;;4.72;;
39612;SDS011;25303;48.896;13.342;2022-10-18T15:58:37;7.65;;;4.25;;
39612;SDS011;25303;48.896;13.342;2022-10-18T16:01:24;7.00;;;4.00;;
39612;SDS011;25303;48.896;13.342;2022-10-18T16:04:15;7.70;;;4.00;;
39612;SDS011;25303;48.896;13.342;2022-10-18T16:07:01;5.95;;;3.58;;
39612;SDS011;25303;48.896;13.342;2022-10-18T16:09:44;6.22;;;3.35;;
39612;SDS011;25303;48.896;13.342;2022-10-18T16:12:27;8.00;;;4.10;;
39612;SDS011;25303;48.896;13.342;2022-10-18T16:15:10;6.40;;;3.75;;
39612;SDS011;25303;48.896;13.342;2022-10-18T16:17:55;6.22;;;3.85;;
39612;SDS011;25303;48.896;13.342;2022-10-18T16:20:38;6.80;;;4.07;;
39612;SDS011;25303;48.896;13.342;2022-10-18T16:23:22;6.32;;;3.95;;
39612;SDS011;25303;48.896;13.342;2022-10-18T16:26:07;6.82;;;4.38;;
39612;SDS011;25303;48.896;13.342;2022-10-18T16:28:50;6.60;;;3.78;;
39612;SDS011;25303;48.896;13.342;2022-10-18T16:31:34;8.25;;;4.57;;
39612;SDS011;25303;48.896;13.342;2022-10-18T16:34:19;5.85;;;3.95;;
39612;SDS011;25303;48.896;13.342;2022-10-18T16:37:02;7.35;;;3.92;;
39612;SDS011;25303;48.896;13.342;2022-10-18T16:39:44;6.72;;;3.67;;
39612;SDS011;25303;48.896;13.342;2022-10-18T16:42:27;4.55;;;2.92;;
39612;SDS011;25303;48.896;13.342;2022-10-18T16:45:11;4.00;;;2.63;;
39612;SDS011;25303;48.896;13.342;2022-10-18T16:47:53;5.35;;;3.20;;
39612;SDS011;25303;48.896;13.342;2022-10-18T16:50:38;3.30;;;2.25;;
39612;SDS011;25303;48.896;13.342;2022-10-18T16:53:21;8.20;;;3.88;;
39612;SDS011;25303;48.896;13.342;2022-10-18T16:56:05;10.57;;;6.50;;
39612;SDS011;25303;48.896;13.342;2022-10-18T16:58:54;13.75;;;8.10;;
39612;SDS011;25303;48.896;13.342;2022-10-18T17:01:38;13.32;;;7.20;;
39612;SDS011;25303;48.896;13.342;2022-10-18T17:04:21;19.42;;;9.50;;
39612;SDS011;25303;48.896;13.342;2022-10-18T17:07:05;11.40;;;5.55;;
39612;SDS011;25303;48.896;13.342;2022-10-18T17:09:50;32.38;;;14.00;;